sensor_id;sensor_type;location;lat;lon;timestamp;temperature;humidity
7117;DHT22;3600;48.568;7.870;2023-11-21T00:02:21;10.10;99.90
7117;DHT22;3600;48.568;7.870;2023-11-21T00:04:49;10.10;99.90
7117;DHT22;3600;48.568;7.870;2023-11-21T00:07:16;10.00;99.90
7117;DHT22;3600;48.568;7.870;2023-11-21T00:09:43;10.00;99.90
7117;DHT22;3600;48.568;7.870;2023-11-21T00:12:10;10.00;99.90
7117;DHT22;3600;48.568;7.870;2023-11-21T00:14:37;10.00;99.90
7117;DHT22;3600;48.568;7.870;2023-11-21T00:17:05;10.00;99.90
7117;DHT22;3600;48.568;7.870;2023-11-21T00:19:33;10.00;99.90
7117;DHT22;3600;48.568;7.870;2023-11-21T00:22:01;10.00;99.90
7117;DHT22;3600;48.568;7.870;2023-11-21T00:24:28;10.00;99.90
7117;DHT22;3600;48.568;7.870;2023-11-21T00:26:55;10.00;99.90
7117;DHT22;3600;48.568;7.870;2023-11-21T00:29:22;10.00;99.90
7117;DHT22;3600;48.568;7.870;2023-11-21T00:31:49;10.00;99.90
7117;DHT22;3600;48.568;7.870;2023-11-21T00:34:15;10.00;99.90
7117;DHT22;3600;48.568;7.870;2023-11-21T00:36:42;10.00;99.90
7117;DHT22;3600;48.568;7.870;2023-11-21T00:39:09;10.00;99.90
7117;DHT22;3600;48.568;7.870;2023-11-21T00:41:36;9.90;99.90
7117;DHT22;3600;48.568;7.870;2023-11-21T00:44:04;10.00;99.90
7117;DHT22;3600;48.568;7.870;2023-11-21T00:46:31;9.90;99.90
7117;DHT22;3600;48.568;7.870;2023-11-21T00:48:59;9.90;99.90
7117;DHT22;3600;48.568;7.870;2023-11-21T00:51:25;9.90;99.90
7117;DHT22;3600;48.568;7.870;2023-11-21T00:53:52;9.90;99.90
7117;DHT22;3600;48.568;7.870;2023-11-21T00:56:19;9.90;99.90
7117;DHT22;3600;48.568;7.870;2023-11-21T00:58:46;9.90;99.90
7117;DHT22;3600;48.568;7.870;2023-11-21T01:01:16;9.90;99.90
7117;DHT22;3600;48.568;7.870;2023-11-21T01:03:46;9.80;99.90
7117;DHT22;3600;48.568;7.870;2023-11-21T01:06:13;9.90;99.90
7117;DHT22;3600;48.568;7.870;2023-11-21T01:08:43;9.80;99.90
7117;DHT22;3600;48.568;7.870;2023-11-21T01:11:10;9.80;99.90
7117;DHT22;3600;48.568;7.870;2023-11-21T01:13:39;9.90;99.90
7117;DHT22;3600;48.568;7.870;2023-11-21T01:16:07;9.90;99.90
7117;DHT22;3600;48.568;7.870;2023-11-21T01:18:35;9.90;99.90
7117;DHT22;3600;48.568;7.870;2023-11-21T01:21:02;9.80;99.90
7117;DHT22;3600;48.568;7.870;2023-11-21T01:23:29;9.80;99.90
7117;DHT22;3600;48.568;7.870;2023-11-21T01:25:57;9.90;99.90
7117;DHT22;3600;48.568;7.870;2023-11-21T01:28:24;9.80;99.90
7117;DHT22;3600;48.568;7.870;2023-11-21T01:30:51;9.90;99.90
7117;DHT22;3600;48.568;7.870;2023-11-21T01:33:18;9.80;99.90
7117;DHT22;3600;48.568;7.870;2023-11-21T01:35:45;9.80;99.90
7117;DHT22;3600;48.568;7.870;2023-11-21T01:38:13;9.80;99.90
7117;DHT22;3600;48.568;7.870;2023-11-21T01:40:40;9.80;99.90
7117;DHT22;3600;48.568;7.870;2023-11-21T01:43:07;9.80;99.90
7117;DHT22;3600;48.568;7.870;2023-11-21T01:45:35;9.80;99.90
7117;DHT22;3600;48.568;7.870;2023-11-21T01:48:02;9.80;99.90
7117;DHT22;3600;48.568;7.870;2023-11-21T01:50:30;9.80;99.90
7117;DHT22;3600;48.568;7.870;2023-11-21T01:52:57;9.80;99.90
7117;DHT22;3600;48.568;7.870;2023-11-21T01:55:24;9.80;99.90
7117;DHT22;3600;48.568;7.870;2023-11-21T01:57:55;9.80;99.90
7117;DHT22;3600;48.568;7.870;2023-11-21T02:00:23;9.80;99.90
7117;DHT22;3600;48.568;7.870;2023-11-21T02:02:51;9.80;99.90
7117;DHT22;3600;48.568;7.870;2023-11-21T02:05:19;9.80;99.90
7117;DHT22;3600;48.568;7.870;2023-11-21T02:07:46;9.70;99.90
7117;DHT22;3600;48.568;7.870;2023-11-21T02:10:15;9.70;99.90
7117;DHT22;3600;48.568;7.870;2023-11-21T02:12:43;9.80;99.90
7117;DHT22;3600;48.568;7.870;2023-11-21T02:15:12;9.70;99.90
7117;DHT22;3600;48.568;7.870;2023-11-21T02:17:54;9.80;99.90
7117;DHT22;3600;48.568;7.870;2023-11-21T02:20:22;9.70;99.90
7117;DHT22;3600;48.568;7.870;2023-11-21T02:22:55;9.70;99.90
7117;DHT22;3600;48.568;7.870;2023-11-21T02:25:29;9.80;99.90
7117;DHT22;3600;48.568;7.870;2023-11-21T02:27:58;9.80;99.90
7117;DHT22;3600;48.568;7.870;2023-11-21T02:30:26;9.80;99.90
7117;DHT22;3600;48.568;7.870;2023-11-21T02:32:55;9.80;99.90
7117;DHT22;3600;48.568;7.870;2023-11-21T02:35:24;9.70;99.90
7117;DHT22;3600;48.568;7.870;2023-11-21T02:37:53;9.80;99.90
7117;DHT22;3600;48.568;7.870;2023-11-21T02:40:20;9.70;99.90
7117;DHT22;3600;48.568;7.870;2023-11-21T02:42:48;9.70;99.90
7117;DHT22;3600;48.568;7.870;2023-11-21T02:45:15;9.70;99.90
7117;DHT22;3600;48.568;7.870;2023-11-21T02:47:44;9.80;99.90
7117;DHT22;3600;48.568;7.870;2023-11-21T02:50:11;9.70;99.90
7117;DHT22;3600;48.568;7.870;2023-11-21T02:52:38;9.70;99.90
7117;DHT22;3600;48.568;7.870;2023-11-21T02:55:07;9.60;99.90
7117;DHT22;3600;48.568;7.870;2023-11-21T02:57:34;9.70;99.90
7117;DHT22;3600;48.568;7.870;2023-11-21T03:00:01;9.70;99.90
7117;DHT22;3600;48.568;7.870;2023-11-21T03:02:34;9.70;99.90
7117;DHT22;3600;48.568;7.870;2023-11-21T03:05:07;9.70;99.90
7117;DHT22;3600;48.568;7.870;2023-11-21T03:07:38;9.60;99.90
7117;DHT22;3600;48.568;7.870;2023-11-21T03:10:07;9.60;99.90
7117;DHT22;3600;48.568;7.870;2023-11-21T03:12:37;9.60;99.90
7117;DHT22;3600;48.568;7.870;2023-11-21T03:15:08;9.60;99.90
7117;DHT22;3600;48.568;7.870;2023-11-21T03:17:38;9.60;99.90
7117;DHT22;3600;48.568;7.870;2023-11-21T03:20:05;9.70;99.90
7117;DHT22;3600;48.568;7.870;2023-11-21T03:22:32;9.60;99.90
7117;DHT22;3600;48.568;7.870;2023-11-21T03:25:00;9.70;99.90
7117;DHT22;3600;48.568;7.870;2023-11-21T03:27:27;9.70;99.90
7117;DHT22;3600;48.568;7.870;2023-11-21T03:29:53;9.70;99.90
7117;DHT22;3600;48.568;7.870;2023-11-21T03:32:21;9.70;99.90
7117;DHT22;3600;48.568;7.870;2023-11-21T03:34:56;9.70;99.90
7117;DHT22;3600;48.568;7.870;2023-11-21T03:37:24;9.60;99.90
7117;DHT22;3600;48.568;7.870;2023-11-21T03:39:56;9.60;99.90
7117;DHT22;3600;48.568;7.870;2023-11-21T03:42:23;9.60;99.90
7117;DHT22;3600;48.568;7.870;2023-11-21T03:44:53;9.60;99.90
7117;DHT22;3600;48.568;7.870;2023-11-21T03:47:20;9.60;99.90
7117;DHT22;3600;48.568;7.870;2023-11-21T03:49:47;9.60;99.90
7117;DHT22;3600;48.568;7.870;2023-11-21T03:52:14;9.60;99.90
7117;DHT22;3600;48.568;7.870;2023-11-21T03:54:41;9.60;99.90
7117;DHT22;3600;48.568;7.870;2023-11-21T03:57:08;9.60;99.90
7117;DHT22;3600;48.568;7.870;2023-11-21T03:59:35;9.60;99.90
7117;DHT22;3600;48.568;7.870;2023-11-21T04:02:02;9.60;99.90
7117;DHT22;3600;48.568;7.870;2023-11-21T04:04:29;9.60;99.90
7117;DHT22;3600;48.568;7.870;2023-11-21T04:06:56;9.60;99.90
7117;DHT22;3600;48.568;7.870;2023-11-21T04:09:23;9.60;99.90
7117;DHT22;3600;48.568;7.870;2023-11-21T04:11:52;9.60;99.90
7117;DHT22;3600;48.568;7.870;2023-11-21T04:14:19;9.60;99.90
7117;DHT22;3600;48.568;7.870;2023-11-21T04:16:46;9.60;99.90
7117;DHT22;3600;48.568;7.870;2023-11-21T04:19:13;9.60;99.90
7117;DHT22;3600;48.568;7.870;2023-11-21T04:21:41;9.60;99.90
7117;DHT22;3600;48.568;7.870;2023-11-21T04:24:12;9.60;99.90
7117;DHT22;3600;48.568;7.870;2023-11-21T04:26:38;9.60;99.90
7117;DHT22;3600;48.568;7.870;2023-11-21T04:29:05;9.50;99.90
7117;DHT22;3600;48.568;7.870;2023-11-21T04:31:32;9.50;99.90
7117;DHT22;3600;48.568;7.870;2023-11-21T04:33:59;9.50;99.90
7117;DHT22;3600;48.568;7.870;2023-11-21T04:36:26;9.50;99.90
7117;DHT22;3600;48.568;7.870;2023-11-21T04:38:53;9.50;99.90
7117;DHT22;3600;48.568;7.870;2023-11-21T04:41:20;9.50;99.90
7117;DHT22;3600;48.568;7.870;2023-11-21T04:43:47;9.50;99.90
7117;DHT22;3600;48.568;7.870;2023-11-21T04:46:13;9.50;99.90
7117;DHT22;3600;48.568;7.870;2023-11-21T04:48:40;9.50;99.90
7117;DHT22;3600;48.568;7.870;2023-11-21T04:51:07;9.50;99.90
7117;DHT22;3600;48.568;7.870;2023-11-21T04:53:34;9.50;99.90
7117;DHT22;3600;48.568;7.870;2023-11-21T04:56:01;9.40;99.90
7117;DHT22;3600;48.568;7.870;2023-11-21T04:58:29;9.40;99.90
7117;DHT22;3600;48.568;7.870;2023-11-21T05:00:57;9.40;99.90
7117;DHT22;3600;48.568;7.870;2023-11-21T05:03:24;9.40;99.90
7117;DHT22;3600;48.568;7.870;2023-11-21T05:05:51;9.40;99.90
7117;DHT22;3600;48.568;7.870;2023-11-21T05:08:18;9.40;99.90
7117;DHT22;3600;48.568;7.870;2023-11-21T05:10:46;9.40;99.90
7117;DHT22;3600;48.568;7.870;2023-11-21T05:13:13;9.40;99.90
7117;DHT22;3600;48.568;7.870;2023-11-21T05:15:40;9.50;99.90
7117;DHT22;3600;48.568;7.870;2023-11-21T05:18:07;9.40;99.90
7117;DHT22;3600;48.568;7.870;2023-11-21T05:20:35;9.40;99.90
7117;DHT22;3600;48.568;7.870;2023-11-21T05:23:02;9.30;99.90
7117;DHT22;3600;48.568;7.870;2023-11-21T05:25:28;9.40;99.90
7117;DHT22;3600;48.568;7.870;2023-11-21T05:27:55;9.30;99.90
7117;DHT22;3600;48.568;7.870;2023-11-21T05:30:22;9.40;99.90
7117;DHT22;3600;48.568;7.870;2023-11-21T05:32:49;9.30;99.90
7117;DHT22;3600;48.568;7.870;2023-11-21T05:35:16;9.40;99.90
7117;DHT22;3600;48.568;7.870;2023-11-21T05:37:45;9.40;99.90
7117;DHT22;3600;48.568;7.870;2023-11-21T05:40:13;9.40;99.90
7117;DHT22;3600;48.568;7.870;2023-11-21T05:42:40;9.40;99.90
7117;DHT22;3600;48.568;7.870;2023-11-21T05:45:08;9.40;99.90
7117;DHT22;3600;48.568;7.870;2023-11-21T05:47:40;9.40;99.90
7117;DHT22;3600;48.568;7.870;2023-11-21T05:50:09;9.40;99.90
7117;DHT22;3600;48.568;7.870;2023-11-21T05:52:37;9.40;99.90
7117;DHT22;3600;48.568;7.870;2023-11-21T05:55:06;9.40;99.90
7117;DHT22;3600;48.568;7.870;2023-11-21T05:57:37;9.40;99.90
7117;DHT22;3600;48.568;7.870;2023-11-21T06:00:08;9.40;99.90
7117;DHT22;3600;48.568;7.870;2023-11-21T06:02:42;9.30;99.90
7117;DHT22;3600;48.568;7.870;2023-11-21T06:05:09;9.30;99.90
7117;DHT22;3600;48.568;7.870;2023-11-21T06:07:37;9.30;99.90
7117;DHT22;3600;48.568;7.870;2023-11-21T06:10:05;9.30;99.90
7117;DHT22;3600;48.568;7.870;2023-11-21T06:12:35;9.30;99.90
7117;DHT22;3600;48.568;7.870;2023-11-21T06:15:06;9.30;99.90
7117;DHT22;3600;48.568;7.870;2023-11-21T06:17:35;9.30;99.90
7117;DHT22;3600;48.568;7.870;2023-11-21T06:20:04;9.30;99.90
7117;DHT22;3600;48.568;7.870;2023-11-21T06:22:40;9.30;99.90
7117;DHT22;3600;48.568;7.870;2023-11-21T06:25:08;9.30;99.90
7117;DHT22;3600;48.568;7.870;2023-11-21T06:27:39;9.30;99.90
7117;DHT22;3600;48.568;7.870;2023-11-21T06:30:07;9.30;99.90
7117;DHT22;3600;48.568;7.870;2023-11-21T06:32:36;9.30;99.90
7117;DHT22;3600;48.568;7.870;2023-11-21T06:35:04;9.30;99.90
7117;DHT22;3600;48.568;7.870;2023-11-21T06:37:31;9.30;99.90
7117;DHT22;3600;48.568;7.870;2023-11-21T06:40:00;9.30;99.90
7117;DHT22;3600;48.568;7.870;2023-11-21T06:42:27;9.30;99.90
7117;DHT22;3600;48.568;7.870;2023-11-21T06:44:56;9.30;99.90
7117;DHT22;3600;48.568;7.870;2023-11-21T06:47:26;9.30;99.90
7117;DHT22;3600;48.568;7.870;2023-11-21T06:49:53;9.30;99.90
7117;DHT22;3600;48.568;7.870;2023-11-21T06:52:20;9.30;99.90
7117;DHT22;3600;48.568;7.870;2023-11-21T06:54:48;9.30;99.90
7117;DHT22;3600;48.568;7.870;2023-11-21T06:57:16;9.30;99.90
7117;DHT22;3600;48.568;7.870;2023-11-21T06:59:44;9.30;99.90
7117;DHT22;3600;48.568;7.870;2023-11-21T07:02:11;9.30;99.90
7117;DHT22;3600;48.568;7.870;2023-11-21T07:04:38;9.30;99.90
7117;DHT22;3600;48.568;7.870;2023-11-21T07:07:06;9.40;99.90
7117;DHT22;3600;48.568;7.870;2023-11-21T07:09:36;9.30;99.90
7117;DHT22;3600;48.568;7.870;2023-11-21T07:12:03;9.30;99.90
7117;DHT22;3600;48.568;7.870;2023-11-21T07:14:35;9.30;99.90
7117;DHT22;3600;48.568;7.870;2023-11-21T07:17:02;9.30;99.90
7117;DHT22;3600;48.568;7.870;2023-11-21T07:19:32;9.30;99.90
7117;DHT22;3600;48.568;7.870;2023-11-21T07:22:00;9.30;99.90
7117;DHT22;3600;48.568;7.870;2023-11-21T07:24:27;9.30;99.90
7117;DHT22;3600;48.568;7.870;2023-11-21T07:26:53;9.30;99.90
7117;DHT22;3600;48.568;7.870;2023-11-21T07:29:24;9.30;99.90
7117;DHT22;3600;48.568;7.870;2023-11-21T07:31:58;9.40;99.90
7117;DHT22;3600;48.568;7.870;2023-11-21T07:34:27;9.40;99.90
7117;DHT22;3600;48.568;7.870;2023-11-21T07:36:54;9.30;99.90
7117;DHT22;3600;48.568;7.870;2023-11-21T07:39:38;9.30;99.90
7117;DHT22;3600;48.568;7.870;2023-11-21T07:42:30;9.30;99.90
7117;DHT22;3600;48.568;7.870;2023-11-21T07:45:19;9.20;99.90
7117;DHT22;3600;48.568;7.870;2023-11-21T07:48:22;9.20;99.90
7117;DHT22;3600;48.568;7.870;2023-11-21T07:50:49;9.20;99.90
7117;DHT22;3600;48.568;7.870;2023-11-21T07:53:16;9.20;99.90
7117;DHT22;3600;48.568;7.870;2023-11-21T07:55:43;9.20;99.90
7117;DHT22;3600;48.568;7.870;2023-11-21T07:58:13;9.30;99.90
7117;DHT22;3600;48.568;7.870;2023-11-21T08:00:40;9.20;99.90
7117;DHT22;3600;48.568;7.870;2023-11-21T08:03:07;9.20;99.90
7117;DHT22;3600;48.568;7.870;2023-11-21T08:05:34;9.20;99.90
7117;DHT22;3600;48.568;7.870;2023-11-21T08:08:03;9.20;99.90
7117;DHT22;3600;48.568;7.870;2023-11-21T08:10:30;9.20;99.90
7117;DHT22;3600;48.568;7.870;2023-11-21T08:12:57;9.20;99.90
7117;DHT22;3600;48.568;7.870;2023-11-21T08:15:24;9.20;99.90
7117;DHT22;3600;48.568;7.870;2023-11-21T08:17:51;9.20;99.90
7117;DHT22;3600;48.568;7.870;2023-11-21T08:20:18;9.30;99.90
7117;DHT22;3600;48.568;7.870;2023-11-21T08:22:46;9.20;99.90
7117;DHT22;3600;48.568;7.870;2023-11-21T08:25:14;9.30;99.90
7117;DHT22;3600;48.568;7.870;2023-11-21T08:27:41;9.20;99.90
7117;DHT22;3600;48.568;7.870;2023-11-21T08:30:09;9.30;99.90
7117;DHT22;3600;48.568;7.870;2023-11-21T08:32:36;9.30;99.90
7117;DHT22;3600;48.568;7.870;2023-11-21T08:35:03;9.30;99.90
7117;DHT22;3600;48.568;7.870;2023-11-21T08:37:30;9.30;99.90
7117;DHT22;3600;48.568;7.870;2023-11-21T08:40:00;9.30;99.90
7117;DHT22;3600;48.568;7.870;2023-11-21T08:42:33;9.30;99.90
7117;DHT22;3600;48.568;7.870;2023-11-21T09:46:41;9.40;99.90
7117;DHT22;3600;48.568;7.870;2023-11-21T09:50:03;9.40;99.90
7117;DHT22;3600;48.568;7.870;2023-11-21T10:01:01;9.30;99.90
7117;DHT22;3600;48.568;7.870;2023-11-21T10:04:15;9.50;99.90
7117;DHT22;3600;48.568;7.870;2023-11-21T10:07:36;9.50;99.90
7117;DHT22;3600;48.568;7.870;2023-11-21T10:10:47;9.40;99.90
7117;DHT22;3600;48.568;7.870;2023-11-21T10:25:46;9.50;99.90
7117;DHT22;3600;48.568;7.870;2023-11-21T10:34:31;9.50;99.90
7117;DHT22;3600;48.568;7.870;2023-11-21T10:41:17;9.70;99.90
7117;DHT22;3600;48.568;7.870;2023-11-21T10:49:14;9.80;99.90
7117;DHT22;3600;48.568;7.870;2023-11-21T10:53:16;9.90;99.90
7117;DHT22;3600;48.568;7.870;2023-11-21T11:08:14;9.80;99.90
7117;DHT22;3600;48.568;7.870;2023-11-21T11:11:22;9.90;99.90
7117;DHT22;3600;48.568;7.870;2023-11-21T11:20:36;9.90;99.90
7117;DHT22;3600;48.568;7.870;2023-11-21T11:26:16;9.90;99.90
7117;DHT22;3600;48.568;7.870;2023-11-21T11:34:20;10.10;99.90
7117;DHT22;3600;48.568;7.870;2023-11-21T11:37:05;10.10;99.90
7117;DHT22;3600;48.568;7.870;2023-11-21T11:39:40;10.10;99.90
7117;DHT22;3600;48.568;7.870;2023-11-21T11:42:14;10.10;99.90
7117;DHT22;3600;48.568;7.870;2023-11-21T11:50:11;10.00;99.90
7117;DHT22;3600;48.568;7.870;2023-11-21T11:52:51;10.10;99.90
7117;DHT22;3600;48.568;7.870;2023-11-21T11:55:21;10.00;99.90
7117;DHT22;3600;48.568;7.870;2023-11-21T11:57:54;10.10;99.90
7117;DHT22;3600;48.568;7.870;2023-11-21T12:02:59;10.20;99.90
7117;DHT22;3600;48.568;7.870;2023-11-21T12:05:32;10.20;99.90
7117;DHT22;3600;48.568;7.870;2023-11-21T12:08:02;10.10;99.90
7117;DHT22;3600;48.568;7.870;2023-11-21T12:10:32;10.20;99.90
7117;DHT22;3600;48.568;7.870;2023-11-21T12:13:17;10.20;99.90
7117;DHT22;3600;48.568;7.870;2023-11-21T12:15:44;10.20;99.90
7117;DHT22;3600;48.568;7.870;2023-11-21T12:18:12;10.20;99.90
7117;DHT22;3600;48.568;7.870;2023-11-21T12:20:39;10.30;99.90
7117;DHT22;3600;48.568;7.870;2023-11-21T12:23:07;10.30;99.90
7117;DHT22;3600;48.568;7.870;2023-11-21T12:25:36;10.30;99.90
7117;DHT22;3600;48.568;7.870;2023-11-21T12:28:03;10.10;99.90
7117;DHT22;3600;48.568;7.870;2023-11-21T12:30:35;10.20;99.90
7117;DHT22;3600;48.568;7.870;2023-11-21T12:33:04;10.10;99.90
7117;DHT22;3600;48.568;7.870;2023-11-21T12:35:34;9.90;99.90
7117;DHT22;3600;48.568;7.870;2023-11-21T12:38:03;10.10;99.90
7117;DHT22;3600;48.568;7.870;2023-11-21T12:40:30;9.80;99.90
7117;DHT22;3600;48.568;7.870;2023-11-21T12:42:59;9.70;99.90
7117;DHT22;3600;48.568;7.870;2023-11-21T12:45:28;9.60;99.90
7117;DHT22;3600;48.568;7.870;2023-11-21T12:48:04;9.50;99.90
7117;DHT22;3600;48.568;7.870;2023-11-21T12:50:36;9.60;99.90
7117;DHT22;3600;48.568;7.870;2023-11-21T12:53:06;9.50;99.90
7117;DHT22;3600;48.568;7.870;2023-11-21T12:55:35;9.70;99.90
7117;DHT22;3600;48.568;7.870;2023-11-21T12:58:07;9.60;99.90
7117;DHT22;3600;48.568;7.870;2023-11-21T13:00:46;9.60;99.90
7117;DHT22;3600;48.568;7.870;2023-11-21T13:03:14;9.70;99.90
7117;DHT22;3600;48.568;7.870;2023-11-21T13:05:47;9.80;99.90
7117;DHT22;3600;48.568;7.870;2023-11-21T13:08:18;9.80;99.90
7117;DHT22;3600;48.568;7.870;2023-11-21T13:10:50;9.80;99.90
7117;DHT22;3600;48.568;7.870;2023-11-21T13:13:18;9.80;99.90
7117;DHT22;3600;48.568;7.870;2023-11-21T13:15:52;9.80;99.90
7117;DHT22;3600;48.568;7.870;2023-11-21T13:18:19;9.90;99.90
7117;DHT22;3600;48.568;7.870;2023-11-21T13:20:49;9.90;99.90
7117;DHT22;3600;48.568;7.870;2023-11-21T13:23:17;9.80;99.90
7117;DHT22;3600;48.568;7.870;2023-11-21T13:25:44;9.90;99.90
7117;DHT22;3600;48.568;7.870;2023-11-21T13:28:22;9.90;99.90
7117;DHT22;3600;48.568;7.870;2023-11-21T13:30:51;10.00;99.90
7117;DHT22;3600;48.568;7.870;2023-11-21T13:33:19;9.90;99.90
7117;DHT22;3600;48.568;7.870;2023-11-21T13:35:53;9.90;99.90
7117;DHT22;3600;48.568;7.870;2023-11-21T13:38:22;9.90;99.90
7117;DHT22;3600;48.568;7.870;2023-11-21T13:40:53;9.90;99.90
7117;DHT22;3600;48.568;7.870;2023-11-21T13:43:22;9.70;99.90
7117;DHT22;3600;48.568;7.870;2023-11-21T13:45:53;9.70;99.90
7117;DHT22;3600;48.568;7.870;2023-11-21T13:48:27;9.50;99.90
7117;DHT22;3600;48.568;7.870;2023-11-21T13:51:14;9.50;99.90
7117;DHT22;3600;48.568;7.870;2023-11-21T13:59:34;9.40;99.90
7117;DHT22;3600;48.568;7.870;2023-11-21T14:06:17;9.50;99.90
7117;DHT22;3600;48.568;7.870;2023-11-21T14:09:45;9.40;99.90
7117;DHT22;3600;48.568;7.870;2023-11-21T14:13:55;9.30;99.90
7117;DHT22;3600;48.568;7.870;2023-11-21T14:17:25;9.40;99.90
7117;DHT22;3600;48.568;7.870;2023-11-21T14:20:31;9.50;99.90
7117;DHT22;3600;48.568;7.870;2023-11-21T14:31:00;9.50;99.90
7117;DHT22;3600;48.568;7.870;2023-11-21T14:33:36;9.50;99.90
7117;DHT22;3600;48.568;7.870;2023-11-21T14:36:12;9.50;99.90
7117;DHT22;3600;48.568;7.870;2023-11-21T14:38:56;9.50;99.90
7117;DHT22;3600;48.568;7.870;2023-11-21T14:41:38;9.40;99.90
7117;DHT22;3600;48.568;7.870;2023-11-21T14:47:22;9.30;99.90
7117;DHT22;3600;48.568;7.870;2023-11-21T14:50:20;9.40;99.90
7117;DHT22;3600;48.568;7.870;2023-11-21T14:53:15;9.40;99.90
7117;DHT22;3600;48.568;7.870;2023-11-21T14:55:57;9.30;99.90
7117;DHT22;3600;48.568;7.870;2023-11-21T14:58:37;9.30;99.90
7117;DHT22;3600;48.568;7.870;2023-11-21T15:01:12;9.30;99.90
7117;DHT22;3600;48.568;7.870;2023-11-21T15:03:43;9.30;99.90
7117;DHT22;3600;48.568;7.870;2023-11-21T15:06:18;9.40;99.90
7117;DHT22;3600;48.568;7.870;2023-11-21T15:09:06;9.30;99.90
7117;DHT22;3600;48.568;7.870;2023-11-21T15:11:38;9.30;99.90
7117;DHT22;3600;48.568;7.870;2023-11-21T15:14:43;9.30;99.90
7117;DHT22;3600;48.568;7.870;2023-11-21T15:17:31;9.40;99.90
7117;DHT22;3600;48.568;7.870;2023-11-21T15:20:05;9.40;99.90
7117;DHT22;3600;48.568;7.870;2023-11-21T15:23:11;9.40;99.90
7117;DHT22;3600;48.568;7.870;2023-11-21T15:26:14;9.40;99.90
7117;DHT22;3600;48.568;7.870;2023-11-21T15:28:48;9.40;99.90
7117;DHT22;3600;48.568;7.870;2023-11-21T15:35:13;9.30;99.90
7117;DHT22;3600;48.568;7.870;2023-11-21T15:37:50;9.40;99.90
7117;DHT22;3600;48.568;7.870;2023-11-21T15:40:47;9.30;99.90
7117;DHT22;3600;48.568;7.870;2023-11-21T15:46:57;9.40;99.90
7117;DHT22;3600;48.568;7.870;2023-11-21T15:49:41;9.40;99.90
7117;DHT22;3600;48.568;7.870;2023-11-21T15:52:22;9.30;99.90
7117;DHT22;3600;48.568;7.870;2023-11-21T15:59:17;9.20;99.90
7117;DHT22;3600;48.568;7.870;2023-11-21T16:02:40;9.20;99.90
7117;DHT22;3600;48.568;7.870;2023-11-21T16:12:20;9.10;99.90
7117;DHT22;3600;48.568;7.870;2023-11-21T16:15:13;9.00;99.90
7117;DHT22;3600;48.568;7.870;2023-11-21T16:29:56;8.90;99.90
7117;DHT22;3600;48.568;7.870;2023-11-21T16:33:06;8.90;99.90
7117;DHT22;3600;48.568;7.870;2023-11-21T16:36:13;8.80;99.90
7117;DHT22;3600;48.568;7.870;2023-11-21T16:39:26;8.80;99.90
7117;DHT22;3600;48.568;7.870;2023-11-21T16:42:17;8.80;99.90
7117;DHT22;3600;48.568;7.870;2023-11-21T16:45:08;8.70;99.90
7117;DHT22;3600;48.568;7.870;2023-11-21T16:47:51;8.70;99.90
7117;DHT22;3600;48.568;7.870;2023-11-21T16:50:33;8.60;99.90
7117;DHT22;3600;48.568;7.870;2023-11-21T16:53:50;8.60;99.90
7117;DHT22;3600;48.568;7.870;2023-11-21T16:56:28;8.60;99.90
7117;DHT22;3600;48.568;7.870;2023-11-21T16:59:26;8.60;99.90
7117;DHT22;3600;48.568;7.870;2023-11-21T17:02:07;8.60;99.90
7117;DHT22;3600;48.568;7.870;2023-11-21T17:05:08;8.60;99.90
7117;DHT22;3600;48.568;7.870;2023-11-21T17:07:52;8.60;99.90
7117;DHT22;3600;48.568;7.870;2023-11-21T17:17:45;8.70;99.90
7117;DHT22;3600;48.568;7.870;2023-11-21T17:20:32;8.60;99.90
7117;DHT22;3600;48.568;7.870;2023-11-21T17:23:53;8.70;99.90
7117;DHT22;3600;48.568;7.870;2023-11-21T17:30:07;8.60;99.90
7117;DHT22;3600;48.568;7.870;2023-11-21T17:36:50;8.60;99.90
7117;DHT22;3600;48.568;7.870;2023-11-21T17:43:11;8.60;99.90
7117;DHT22;3600;48.568;7.870;2023-11-21T17:46:06;8.60;99.90
7117;DHT22;3600;48.568;7.870;2023-11-21T17:49:04;8.60;99.90
7117;DHT22;3600;48.568;7.870;2023-11-21T17:52:21;8.60;99.90
7117;DHT22;3600;48.568;7.870;2023-11-21T17:55:33;8.70;99.90
7117;DHT22;3600;48.568;7.870;2023-11-21T18:01:52;8.80;99.90
7117;DHT22;3600;48.568;7.870;2023-11-21T18:05:23;8.90;99.90
7117;DHT22;3600;48.568;7.870;2023-11-21T18:08:03;8.80;99.90
7117;DHT22;3600;48.568;7.870;2023-11-21T18:10:45;8.70;99.90
7117;DHT22;3600;48.568;7.870;2023-11-21T18:13:43;8.70;99.90
7117;DHT22;3600;48.568;7.870;2023-11-21T18:16:44;8.60;99.90
7117;DHT22;3600;48.568;7.870;2023-11-21T18:19:36;8.60;99.90
7117;DHT22;3600;48.568;7.870;2023-11-21T18:22:38;8.60;99.90
7117;DHT22;3600;48.568;7.870;2023-11-21T18:25:25;8.60;99.90
7117;DHT22;3600;48.568;7.870;2023-11-21T18:28:32;8.70;99.90
7117;DHT22;3600;48.568;7.870;2023-11-21T18:31:37;8.60;99.90
7117;DHT22;3600;48.568;7.870;2023-11-21T18:34:40;8.50;99.90
7117;DHT22;3600;48.568;7.870;2023-11-21T18:37:16;8.50;99.90
7117;DHT22;3600;48.568;7.870;2023-11-21T18:43:30;8.40;99.90
7117;DHT22;3600;48.568;7.870;2023-11-21T18:46:40;8.40;99.90
7117;DHT22;3600;48.568;7.870;2023-11-21T18:49:28;8.40;99.90
7117;DHT22;3600;48.568;7.870;2023-11-21T18:52:33;8.40;99.90
7117;DHT22;3600;48.568;7.870;2023-11-21T18:55:51;8.50;99.90
7117;DHT22;3600;48.568;7.870;2023-11-21T18:58:49;8.40;99.90
7117;DHT22;3600;48.568;7.870;2023-11-21T19:05:01;8.50;99.90
7117;DHT22;3600;48.568;7.870;2023-11-21T19:08:15;8.50;99.90
7117;DHT22;3600;48.568;7.870;2023-11-21T19:11:03;8.50;99.90
7117;DHT22;3600;48.568;7.870;2023-11-21T19:13:56;8.40;99.90
7117;DHT22;3600;48.568;7.870;2023-11-21T19:16:49;8.30;99.90
7117;DHT22;3600;48.568;7.870;2023-11-21T19:19:33;8.30;99.90
7117;DHT22;3600;48.568;7.870;2023-11-21T19:22:03;8.30;99.90
7117;DHT22;3600;48.568;7.870;2023-11-21T19:24:30;8.40;99.90
7117;DHT22;3600;48.568;7.870;2023-11-21T19:26:57;8.40;99.90
7117;DHT22;3600;48.568;7.870;2023-11-21T19:29:24;8.40;99.90
7117;DHT22;3600;48.568;7.870;2023-11-21T19:31:51;8.40;99.90
7117;DHT22;3600;48.568;7.870;2023-11-21T19:34:17;8.40;99.90
7117;DHT22;3600;48.568;7.870;2023-11-21T19:36:45;8.40;99.90
7117;DHT22;3600;48.568;7.870;2023-11-21T19:39:12;8.30;99.90
7117;DHT22;3600;48.568;7.870;2023-11-21T19:41:42;8.40;99.90
7117;DHT22;3600;48.568;7.870;2023-11-21T19:44:10;8.40;99.90
7117;DHT22;3600;48.568;7.870;2023-11-21T19:46:37;8.40;99.90
7117;DHT22;3600;48.568;7.870;2023-11-21T19:49:04;8.40;99.90
7117;DHT22;3600;48.568;7.870;2023-11-21T19:51:35;8.40;99.90
7117;DHT22;3600;48.568;7.870;2023-11-21T19:54:02;8.40;99.90
7117;DHT22;3600;48.568;7.870;2023-11-21T19:56:32;8.40;99.90
7117;DHT22;3600;48.568;7.870;2023-11-21T19:58:58;8.40;99.90
7117;DHT22;3600;48.568;7.870;2023-11-21T20:01:25;8.40;99.90
7117;DHT22;3600;48.568;7.870;2023-11-21T20:03:52;8.40;99.90
7117;DHT22;3600;48.568;7.870;2023-11-21T20:06:19;8.40;99.90
7117;DHT22;3600;48.568;7.870;2023-11-21T20:08:46;8.40;99.90
7117;DHT22;3600;48.568;7.870;2023-11-21T20:11:23;8.40;99.90
7117;DHT22;3600;48.568;7.870;2023-11-21T20:13:51;8.40;99.90
7117;DHT22;3600;48.568;7.870;2023-11-21T20:16:18;8.40;99.90
7117;DHT22;3600;48.568;7.870;2023-11-21T20:18:46;8.40;99.90
7117;DHT22;3600;48.568;7.870;2023-11-21T20:21:19;8.40;99.90
7117;DHT22;3600;48.568;7.870;2023-11-21T20:23:47;8.40;99.90
7117;DHT22;3600;48.568;7.870;2023-11-21T20:26:24;8.30;99.90
7117;DHT22;3600;48.568;7.870;2023-11-21T20:28:52;8.30;99.90
7117;DHT22;3600;48.568;7.870;2023-11-21T20:31:20;8.30;99.90
7117;DHT22;3600;48.568;7.870;2023-11-21T20:33:47;8.30;99.90
7117;DHT22;3600;48.568;7.870;2023-11-21T20:36:15;8.30;99.90
7117;DHT22;3600;48.568;7.870;2023-11-21T20:38:42;8.40;99.90
7117;DHT22;3600;48.568;7.870;2023-11-21T20:41:08;8.40;99.90
7117;DHT22;3600;48.568;7.870;2023-11-21T20:43:39;8.40;99.90